Latest Weather Observations for Bombala AWS

IDN60801

Issued at 7:42 pm EDT Friday 19 December 2014 (issued every 30 minutes, with the page automatically refreshed every 10 minutes)

About weather observations | Map of weather stations | Latest weather observations for NSW | Other Formats
Station Details ID: 070328 Name: BOMBALA AWS Lat: -37.00 Lon: 149.23 Height: 760.5 m
Data from the previous 72 hours. | See also: Recent months at Bombala AWS
Date/Time
EDT
Temp
°C
App
Temp
°C
Dew
Point
Rel
Hum
%
Delta-T
°C
Wind Press
QNH
hPa
Press
MSL
hPa
Rain
since 9 am
mm
Dir
 
Spd
km/h
Gust
km/h
Spd
kts
Gust
kts
19/07:30pm 11.8 7.6 7.3 74 2.3 S 19 24 10 13 1017.2 1014.8 0.0
19/07:00pm 13.2 8.2 6.3 63 3.4 SSW 22 30 12 16 1016.6 1014.3 0.0
19/06:30pm 14.2 8.7 5.8 57 4.2 SSW 24 32 13 17 1016.1 1013.8 0.0
19/06:00pm 14.7 8.7 5.2 53 4.7 SW 26 37 14 20 1015.7 1013.3 0.0
19/05:30pm 15.1 9.7 4.5 49 5.1 SW 22 32 12 17 1015.7 1013.3 0.0
19/05:00pm 14.8 9.7 6.1 56 4.4 SSW 22 33 12 18 1015.6 1013.2 0.0
19/04:30pm 15.2 8.8 5.4 52 4.9 SW 28 39 15 21 1015.4 1013.0 0.0
19/04:00pm 15.9 9.2 5.8 51 5.1 SW 30 46 16 25 1015.5 1013.1 0.0
19/03:30pm 15.3 9.8 5.8 53 4.7 SW 24 33 13 18 1015.5 1013.1 0.0
19/03:00pm 14.1 8.4 4.9 54 4.5 SW 24 35 13 19 1015.4 1013.0 0.0
19/02:30pm 13.7 8.5 3.8 51 4.7 SW 20 33 11 18 1015.2 1012.9 0.0
19/02:00pm 12.1 4.6 4.6 60 3.6 WSW 33 41 18 22 1015.6 1013.2 0.0
19/01:30pm 13.2 8.1 4.1 54 4.3 WSW 20 28 11 15 1015.4 1013.0 0.0
19/01:00pm 12.7 5.8 4.4 57 3.9 SW 30 41 16 22 1015.2 1012.9 0.0
19/12:30pm 13.2 6.8 5.4 59 3.8 W 28 35 15 19 1015.2 1012.9 0.0
19/12:00pm 13.8 8.2 3.6 50 4.8 SW 22 30 12 16 1014.9 1012.6 0.0
19/11:30am 13.2 6.7 4.9 57 4.0 WSW 28 39 15 21 1014.6 1012.2 0.0
19/11:00am 13.2 7.2 5.1 58 3.9 WSW 26 37 14 20 1014.6 1012.2 0.0
19/10:30am 13.6 7.2 5.3 57 4.1 WSW 28 43 15 23 1014.5 1012.1 0.0
19/10:18am 12.5 5.9 4.0 56 4.0 WSW 28 48 15 26 1014.6 1012.2 0.0
19/10:00am 12.1 5.9 4.3 59 3.7 WSW 26 33 14 18 1014.9 1012.6 0.0
19/09:30am 11.1 5.3 4.6 64 3.1 WSW 24 33 13 18 1014.7 1012.3 0.0
19/09:00am 11.6 5.6 5.3 65 3.0 SW 26 37 14 20 1014.8 1012.4 -
19/08:30am 9.7 3.7 5.3 74 2.1 WSW 26 35 14 19 1014.5 1012.1 -
19/08:00am 8.9 3.1 4.5 74 2.0 WSW 24 41 13 22 1014.1 1011.7 -
19/07:30am 8.6 5.7 4.8 77 1.8 WSW 9 22 5 12 1013.7 1011.3 -
19/07:00am 8.6 4.9 4.6 76 1.9 WSW 13 20 7 11 1013.4 1011.0 -
19/06:30am 8.2 4.2 5.1 81 1.4 SW 15 26 8 14 1013.0 1010.6 -
19/06:00am 7.5 6.1 5.3 86 1.0 WNW 2 9 1 5 1012.3 1009.9 -
19/05:30am 7.0 5.5 4.8 86 1.0 W 2 6 1 3 1012.0 1009.6 -
19/05:00am 7.6 6.2 5.4 86 1.0 SSW 2 9 1 5 1011.6 1009.2 -
19/04:30am 8.2 5.6 6.2 87 1.0 SW 9 17 5 9 1011.2 1008.7 -
19/04:00am 8.6 4.0 6.6 87 1.0 SW 20 28 11 15 1011.0 1008.6 -
19/03:30am 7.8 3.4 6.7 93 0.5 SW 19 28 10 15 1010.6 1008.2 -
19/03:00am 7.3 3.2 6.1 92 0.6 SW 17 24 9 13 1010.6 1008.2 0.8
19/02:30am 7.7 3.5 5.8 88 0.9 SW 17 26 9 14 1010.7 1008.3 -
19/02:00am 8.0 3.0 6.3 89 0.8 SW 22 32 12 17 1010.9 1008.5 -
19/01:30am 8.4 3.5 6.9 90 0.7 SW 22 32 12 17 1011.0 1008.6 -
19/01:00am 8.8 6.6 8.0 95 0.4 SSW 9 17 5 9 1010.7 1008.3 -
19/12:30am 9.8 7.5 9.0 95 0.4 SW 11 20 6 11 1010.9 1008.5 -
19/12:00am 10.1 7.3 10.0 99 0.1 SSW 15 20 8 11 1010.9 1008.5 -
 
Date/Time
EDT
Temp
°C
App
Temp
°C
Dew
Point
Rel
Hum
%
Delta-T
°C
Wind Press
QNH
hPa
Press
MSL
hPa
Rain
since 9 am
mm
Dir
 
Spd
km/h
Gust
km/h
Spd
kts
Gust
kts
18/11:30pm 10.1 7.3 10.0 99 0.1 SSW 15 19 8 10 1010.9 1008.5 -
18/11:00pm 9.8 7.3 9.7 99 0.1 SSW 13 19 7 10 1010.8 1008.4 -
18/10:30pm 9.5 5.2 9.4 99 0.1 S 22 32 12 17 1010.5 1008.1 -
18/10:00pm 10.2 4.2 8.8 91 0.7 SSW 30 43 16 23 1011.0 1008.6 -
18/09:30pm 12.0 5.5 10.2 89 1.0 S 35 46 19 25 1010.0 1007.5 -
18/09:00pm 12.5 7.5 9.5 82 1.6 S 26 35 14 19 1009.9 1007.4 0.0
18/08:30pm 14.8 9.4 7.8 63 3.6 S 26 39 14 21 1008.7 1006.2 -
18/08:00pm 17.3 13.2 4.6 43 6.3 WNW 15 19 8 10 1007.5 1005.0 -
18/07:30pm 20.1 16.4 4.6 36 7.8 WNW 13 17 7 9 1007.2 1004.7 -
18/07:00pm 20.2 15.1 3.0 32 8.4 WNW 19 32 10 17 1006.7 1004.2 -
18/06:30pm 20.3 15.9 4.8 36 7.9 WNW 17 24 9 13 1006.6 1004.1 -
18/06:00pm 20.4 15.6 5.6 38 7.6 WNW 20 26 11 14 1006.7 1004.2 -
18/05:30pm 21.3 15.3 5.2 35 8.3 WNW 26 35 14 19 1006.2 1003.7 -
18/05:00pm 21.2 15.3 5.6 36 8.1 WNW 26 35 14 19 1006.3 1003.8 -
18/04:30pm 21.2 15.0 4.3 33 8.5 WNW 26 35 14 19 1006.3 1003.8 -
18/04:00pm 22.9 17.1 4.4 30 9.5 NW 24 39 13 21 1006.1 1003.6 -
18/03:41pm 23.4 16.7 3.4 27 10.1 WNW 28 48 15 26 1005.9 1003.4 -
18/03:30pm 24.0 19.1 6.7 33 9.3 WNW 22 32 12 17 1006.0 1003.5 -
18/03:00pm 23.8 18.8 4.7 29 9.9 WNW 20 33 11 18 1005.8 1003.3 -
18/02:30pm 24.4 21.1 6.6 32 9.6 WNW 13 28 7 15 1006.0 1003.5 -
18/01:30pm 21.7 19.1 4.3 32 8.8 NNW 7 15 4 8 1006.7 1004.2 -
18/01:00pm 21.8 18.8 3.9 31 9.0 WNW 9 17 5 9 1007.3 1004.8 -
18/12:30pm 20.5 16.2 5.3 37 7.8 NW 17 26 9 14 1007.6 1005.1 0.0
18/12:00pm 20.8 18.6 7.8 43 7.0 W 9 22 5 12 1007.8 1005.3 0.0
18/11:30am 19.9 16.0 7.0 43 6.8 NW 17 26 9 14 1008.2 1005.8 0.0
18/11:00am 19.5 15.5 6.6 43 6.7 WNW 17 24 9 13 1008.7 1006.2 0.0
18/10:30am 18.9 15.3 6.7 45 6.4 NW 15 26 8 14 1008.8 1006.3 0.0
18/10:00am 17.8 15.0 8.4 54 5.0 NNW 13 20 7 11 1008.9 1006.4 0.0
18/09:30am 16.7 14.2 9.6 63 3.9 N 13 20 7 11 1009.1 1006.7 0.0
18/09:00am 15.2 12.3 9.8 70 2.9 N 15 24 8 13 1009.4 1007.0 0.0
18/08:30am 14.1 11.4 10.3 78 2.1 N 15 20 8 11 1009.5 1007.1 0.0
18/08:00am 12.5 11.2 10.0 85 1.3 N 7 9 4 5 1009.8 1007.3 0.0
18/07:30am 10.7 10.4 10.1 96 0.3 N 2 4 1 2 1009.6 1007.2 0.0
18/07:00am 10.5 9.9 10.3 99 0.1 N 4 6 2 3 1009.3 1006.9 0.0
18/06:30am 9.7 8.3 9.6 99 0.1 NNE 7 9 4 5 1009.0 1006.5 0.0
18/06:00am 9.3 7.4 9.2 99 0.1 NNE 9 11 5 6 1009.0 1006.5 0.0
18/05:30am 9.2 7.3 9.1 99 0.1 NNE 9 13 5 7 1009.1 1006.7 0.0
18/05:00am 9.0 7.1 8.9 99 0.1 NNE 9 13 5 7 1009.1 1006.7 0.0
18/04:30am 9.2 6.9 9.1 99 0.1 NNE 11 15 6 8 1009.0 1006.5 0.0
18/04:00am 9.5 7.3 9.4 99 0.1 N 11 17 6 9 1008.9 1006.4 0.0
18/03:30am 9.7 7.1 9.2 97 0.3 NNE 13 20 7 11 1009.1 1006.7 0.0
18/03:00am 10.2 7.6 9.4 95 0.4 N 13 17 7 9 1009.4 1007.0 0.0
18/02:30am 9.8 8.6 9.5 98 0.2 NNE 6 9 3 5 1009.8 1007.3 0.0
18/02:00am 9.5 7.6 9.2 98 0.2 NE 9 13 5 7 1010.0 1007.5 0.0
18/01:30am 9.4 7.4 8.6 95 0.4 ENE 9 17 5 9 1010.4 1008.0 0.0
18/01:00am 9.5 8.0 8.3 92 0.6 ENE 6 11 3 6 1010.7 1008.3 0.0
18/12:30am 9.5 6.5 7.8 89 0.9 ENE 13 24 7 13 1010.9 1008.5 0.0
18/12:00am 9.6 6.2 7.5 87 1.0 ENE 15 26 8 14 1011.3 1008.8 0.0
 
Date/Time
EDT
Temp
°C
App
Temp
°C
Dew
Point
Rel
Hum
%
Delta-T
°C
Wind Press
QNH
hPa
Press
MSL
hPa
Rain
since 9 am
mm
Dir
 
Spd
km/h
Gust
km/h
Spd
kts
Gust
kts
17/11:30pm 9.9 7.3 7.7 86 1.1 ENE 11 19 6 10 1011.6 1009.2 0.0
17/11:00pm 10.3 7.4 8.1 86 1.1 ENE 13 20 7 11 1011.7 1009.3 0.0
17/10:30pm 10.6 8.5 8.2 85 1.2 ENE 9 17 5 9 1011.7 1009.3 0.0
17/10:00pm 10.7 7.7 7.6 81 1.6 ENE 13 19 7 10 1011.6 1009.2 0.0
17/09:30pm 10.8 7.3 7.1 78 1.8 ENE 15 24 8 13 1011.4 1008.9 0.0
17/09:00pm 11.0 7.9 7.3 78 1.9 ENE 13 22 7 12 1011.3 1008.8 0.0
17/08:30pm 11.2 7.4 7.7 79 1.8 ENE 17 28 9 15 1010.9 1008.5 0.0
17/08:00pm 11.8 8.2 8.3 79 1.8 ENE 17 24 9 13 1010.4 1008.0 0.0
17/07:30pm 12.5 9.0 8.6 77 2.0 ENE 17 24 9 13 1009.9 1007.4 0.0
17/07:00pm 13.3 9.5 9.0 75 2.3 E 19 26 10 14 1009.2 1006.8 0.0
17/06:30pm 14.4 11.0 9.0 70 2.9 ESE 17 28 9 15 1008.6 1006.1 0.0
17/06:00pm 16.6 13.1 8.8 60 4.2 ESE 17 30 9 16 1008.4 1005.9 0.0
17/05:30pm 15.5 11.5 8.3 62 3.8 E 19 26 10 14 1008.2 1005.8 0.0
17/05:00pm 17.6 14.0 8.2 54 5.0 ESE 17 24 9 13 1008.0 1005.6 0.0
17/04:30pm 19.7 17.8 5.0 38 7.4 NE 4 11 2 6 1007.9 1005.4 0.0
17/04:00pm 19.3 17.0 5.7 41 7.0 ESE 7 13 4 7 1007.9 1005.4 0.0
17/03:30pm 19.0 16.4 4.4 38 7.3 ESE 7 13 4 7 1007.9 1005.4 0.0
17/03:00pm 19.2 16.6 6.3 43 6.7 SSW 9 20 5 11 1008.1 1005.7 0.0
17/02:30pm 18.3 15.6 5.5 43 6.5 S 9 17 5 9 1008.2 1005.8 0.0
17/02:00pm 18.0 15.2 5.2 43 6.5 SSW 9 19 5 10 1008.2 1005.8 0.0
17/01:30pm 17.5 14.9 3.4 39 6.8 SSW 6 13 3 7 1008.4 1005.9 0.0
17/01:00pm 16.6 13.7 4.6 45 5.9 WSW 9 19 5 10 1008.5 1006.0 0.0
17/12:30pm 16.1 12.5 2.9 41 6.2 WSW 11 19 6 10 1008.7 1006.2 0.0
17/12:00pm 16.4 13.0 5.7 49 5.4 SW 13 20 7 11 1008.6 1006.1 0.0
17/11:30am 15.4 11.3 4.2 47 5.4 SW 15 26 8 14 1008.6 1006.1 0.0
17/11:00am 14.9 10.5 4.6 50 5.0 SW 17 24 9 13 1008.4 1005.9 0.0
17/10:30am 13.8 8.6 3.3 49 4.9 WSW 20 30 11 16 1008.2 1005.8 0.0
17/10:00am 13.1 8.5 3.7 53 4.4 WSW 17 24 9 13 1008.0 1005.6 0.0
17/09:30am 12.8 7.3 4.0 55 4.2 WSW 22 32 12 17 1007.9 1005.4 0.0
17/09:00am 11.8 5.8 3.1 55 4.0 WSW 24 33 13 18 1008.0 1005.6 0.2
17/08:30am 11.1 5.7 2.7 56 3.8 SW 20 30 11 16 1007.9 1005.4 0.2
17/08:00am 10.5 5.4 4.0 64 3.0 SW 20 30 11 16 1007.7 1005.2 0.2
17/07:30am 9.3 3.0 3.5 67 2.6 SW 26 35 14 19 1007.2 1004.7 0.2
17/07:00am 8.5 2.6 3.8 72 2.1 SW 24 32 13 17 1006.6 1004.1 0.2
17/06:30am 8.3 2.4 3.9 74 2.0 SW 24 32 13 17 1006.0 1003.5 0.2
17/06:00am 8.0 3.0 3.8 75 1.9 SW 19 24 10 13 1005.6 1003.0 0.2
17/05:30am 8.4 3.9 4.0 74 2.0 SW 17 24 9 13 1005.0 1002.5 0.2
17/05:00am 8.4 3.2 3.8 73 2.1 SW 20 32 11 17 1004.4 1001.8 0.2
17/04:30am 8.7 2.8 3.9 72 2.2 SW 24 35 13 19 1003.6 1001.1 0.2
17/04:00am 8.3 5.1 5.2 81 1.5 SW 11 17 6 9 1003.3 1000.8 0.2
17/03:30am 8.4 5.1 6.5 88 0.9 SSW 13 17 7 9 1003.0 1000.4 0.2
17/03:00am 9.0 6.2 6.8 86 1.1 SSW 11 17 6 9 1002.9 1000.3 0.2
17/02:30am 9.7 5.8 7.3 85 1.2 SW 17 24 9 13 1002.9 1000.3 0.2
17/02:00am 10.4 5.4 8.0 85 1.2 SW 24 32 13 17 1002.6 1000.1 0.2
17/01:30am 11.4 7.8 10.0 91 0.7 SSW 19 28 10 15 1002.5 1000.0 0.2
17/01:00am 12.2 10.0 12.0 99 0.1 SSW 15 20 8 11 1002.3 999.8 0.2
17/12:30am 11.7 9.7 11.5 99 0.1 S 13 15 7 8 1002.1 999.5 0.2
17/12:00am 12.5 11.0 11.9 96 0.3 S 11 13 6 7 1002.1 999.5 0.2
 
Date/Time
EDT
Temp
°C
App
Temp
°C
Dew
Point
Rel
Hum
%
Delta-T
°C
Wind Press
QNH
hPa
Press
MSL
hPa
Rain
since 9 am
mm
Dir
 
Spd
km/h
Gust
km/h
Spd
kts
Gust
kts
16/11:30pm 13.2 10.7 12.4 95 0.4 S 17 24 9 13 1002.0 999.4 0.2
16/11:00pm 13.4 9.9 12.3 93 0.6 S 22 32 12 17 1001.7 999.1 0.2
16/10:30pm 14.1 11.2 13.0 93 0.6 S 20 30 11 16 1001.9 999.3 0.2
16/10:00pm 14.8 10.4 12.8 88 1.1 SSE 28 37 15 20 1001.2 998.7 0.2
16/09:42pm 17.0 13.1 10.8 67 3.5 SSW 22 44 12 24 1000.4 997.8 0.2
16/09:30pm 22.1 16.5 3.3 29 9.4 WNW 22 30 12 16 999.5 996.9 0.2
16/09:00pm 19.7 16.8 4.6 37 7.6 NW 9 11 5 6 999.2 996.6 0.2
16/08:30pm 21.5 17.9 3.2 30 9.1 NNW 11 19 6 10 998.8 996.2 0.2
16/08:00pm 24.1 18.8 1.7 23 11.1 WNW 19 24 10 13 998.9 996.3 0.2

Other Formats:

Comma delimited format used in spreadsheet applications
http://www.bom.gov.au/fwo/IDN60801/IDN60801.94929.axf

JavaScript Object Notation format (JSON) in row-major order
http://www.bom.gov.au/fwo/IDN60801/IDN60801.94929.json